createdAt,value
2018-07-04T00:01:08.419Z,92.40
2018-07-04T00:03:48.107Z,92.50
2018-07-04T00:06:27.768Z,92.70
2018-07-04T00:09:07.395Z,92.90
2018-07-04T00:11:47.232Z,92.90
2018-07-04T00:14:27.025Z,93.00
2018-07-04T00:17:06.613Z,93.00
2018-07-04T00:19:46.399Z,92.80
2018-07-04T00:22:26.038Z,93.20
2018-07-04T00:25:05.824Z,92.90
2018-07-04T00:27:46.500Z,92.90
2018-07-04T00:30:26.324Z,93.00
2018-07-04T00:33:06.053Z,93.60
2018-07-04T00:35:45.856Z,94.10
2018-07-04T00:38:25.447Z,94.30
2018-07-04T00:41:05.305Z,94.10
2018-07-04T00:43:45.066Z,93.80
2018-07-04T00:46:24.751Z,93.60
2018-07-04T00:49:04.307Z,93.60
2018-07-04T00:51:44.043Z,94.00
2018-07-04T00:54:23.708Z,93.70
2018-07-04T00:57:03.361Z,93.80
2018-07-04T00:59:43.189Z,93.80
2018-07-04T01:02:23.055Z,93.80
2018-07-04T01:05:02.820Z,93.90
2018-07-04T01:07:42.593Z,94.20
2018-07-04T01:10:22.409Z,94.10
2018-07-04T01:13:02.115Z,94.40
2018-07-04T01:15:42.028Z,94.40
2018-07-04T01:18:21.746Z,94.50
2018-07-04T01:21:06.934Z,94.60
2018-07-04T01:23:46.545Z,94.70
2018-07-04T01:26:26.273Z,94.90
2018-07-04T01:29:06.126Z,95.10
2018-07-04T01:31:45.916Z,95.20
2018-07-04T01:34:25.704Z,94.40
2018-07-04T01:37:05.281Z,94.10
2018-07-04T01:39:45.314Z,94.60
2018-07-04T01:42:25.115Z,94.50
2018-07-04T01:45:04.864Z,94.10
2018-07-04T01:47:44.707Z,94.10
2018-07-04T01:50:24.366Z,94.10
2018-07-04T01:53:04.215Z,94.20
2018-07-04T01:55:43.935Z,93.60
2018-07-04T01:58:23.744Z,93.30
2018-07-04T02:01:03.475Z,93.20
2018-07-04T02:03:43.240Z,93.00
2018-07-04T02:06:23.007Z,92.90
2018-07-04T02:09:02.612Z,92.90
2018-07-04T02:11:42.372Z,93.30
2018-07-04T02:14:22.184Z,93.90
2018-07-04T02:17:02.139Z,94.10
2018-07-04T02:19:41.954Z,94.20
2018-07-04T02:22:21.452Z,94.30
2018-07-04T02:25:01.316Z,94.50
2018-07-04T02:27:41.117Z,94.50
2018-07-04T02:30:20.794Z,94.70
2018-07-04T02:33:01.148Z,95.00
2018-07-04T02:35:40.720Z,94.20
2018-07-04T02:38:20.479Z,94.30
2018-07-04T02:41:00.074Z,94.20
2018-07-04T02:43:39.730Z,94.00
2018-07-04T02:46:24.788Z,94.20
2018-07-04T02:49:04.223Z,94.60
2018-07-04T02:51:44.020Z,94.50
2018-07-04T02:54:23.599Z,94.50
2018-07-04T02:57:03.363Z,94.30
2018-07-04T02:59:42.906Z,93.90
2018-07-04T03:02:22.771Z,93.70
2018-07-04T03:05:02.478Z,93.60
2018-07-04T03:07:42.332Z,93.80
2018-07-04T03:10:22.165Z,93.90
2018-07-04T03:13:01.733Z,94.00
2018-07-04T03:15:41.501Z,94.00
2018-07-04T03:18:21.090Z,94.10
2018-07-04T03:21:01.002Z,94.10
2018-07-04T03:23:40.669Z,94.30
2018-07-04T03:28:54.289Z,94.50
2018-07-04T03:31:34.120Z,94.90
2018-07-04T03:34:13.950Z,94.80
2018-07-04T03:36:53.846Z,95.10
2018-07-04T03:39:33.499Z,95.20
2018-07-04T03:42:13.249Z,95.30
2018-07-04T03:44:53.014Z,94.80
2018-07-04T03:50:06.193Z,94.90
2018-07-04T03:52:46.737Z,94.80
2018-07-04T03:55:26.511Z,94.90
2018-07-04T03:58:06.205Z,94.90
2018-07-04T04:00:45.981Z,95.10
2018-07-04T04:03:25.842Z,95.10
2018-07-04T04:06:05.458Z,95.00
2018-07-04T04:08:45.122Z,95.10
2018-07-04T04:11:24.971Z,94.70
2018-07-04T04:14:04.700Z,94.70
2018-07-04T04:16:44.625Z,94.60
2018-07-04T04:19:28.761Z,94.80
2018-07-04T04:22:08.639Z,94.70
2018-07-04T04:24:48.517Z,94.80
2018-07-04T04:27:28.098Z,94.60
2018-07-04T04:30:07.637Z,94.50
2018-07-04T04:32:47.536Z,94.40
2018-07-04T04:35:27.337Z,94.40
2018-07-04T04:38:07.133Z,94.30
2018-07-04T04:40:47.014Z,94.20
2018-07-04T04:43:26.815Z,94.50
2018-07-04T04:46:06.657Z,94.20
2018-07-04T04:48:46.412Z,94.10
2018-07-04T04:51:26.022Z,94.10
2018-07-04T04:56:39.426Z,94.60
2018-07-04T04:59:19.019Z,94.60
2018-07-04T05:01:58.839Z,94.50
2018-07-04T05:04:38.532Z,94.60
2018-07-04T05:07:18.351Z,94.40
2018-07-04T05:09:58.134Z,94.30
2018-07-04T05:12:37.932Z,94.30
2018-07-04T05:15:17.512Z,94.10
2018-07-04T05:17:57.390Z,94.10
2018-07-04T05:20:37.016Z,94.00
2018-07-04T05:23:16.614Z,93.90
2018-07-04T05:25:56.276Z,93.90
2018-07-04T05:28:35.979Z,93.60
2018-07-04T05:31:15.970Z,93.60
2018-07-04T05:33:55.510Z,93.90
2018-07-04T05:36:35.261Z,93.90
2018-07-04T05:39:15.003Z,93.90
2018-07-04T05:44:28.503Z,94.00
2018-07-04T05:47:08.344Z,93.90
2018-07-04T05:49:48.334Z,93.90
2018-07-04T05:52:27.978Z,93.90
2018-07-04T05:55:07.649Z,93.80
2018-07-04T05:57:47.176Z,93.50
2018-07-04T06:00:27.083Z,93.20
2018-07-04T06:03:06.547Z,93.40
2018-07-04T06:05:46.739Z,93.40
2018-07-04T06:08:26.698Z,93.70
2018-07-04T06:11:06.450Z,93.70
2018-07-04T06:13:46.436Z,93.60
2018-07-04T06:16:26.220Z,93.50
2018-07-04T06:21:39.823Z,93.80
2018-07-04T06:24:19.572Z,93.70
2018-07-04T06:26:59.366Z,93.60
2018-07-04T06:29:39.182Z,93.30
2018-07-04T06:32:19.077Z,93.20
2018-07-04T06:34:58.708Z,92.90
2018-07-04T06:37:37.494Z,92.60
2018-07-04T06:40:05.203Z,92.60
2018-07-04T06:42:32.724Z,92.60
2018-07-04T06:45:00.140Z,92.70
2018-07-04T06:47:27.475Z,92.70
2018-07-04T06:49:55.392Z,92.60
2018-07-04T06:52:22.662Z,92.70
2018-07-04T06:54:50.657Z,92.60
2018-07-04T06:57:19.030Z,92.60
2018-07-04T07:02:15.920Z,92.50
2018-07-04T07:04:57.113Z,92.30
2018-07-04T07:07:36.790Z,92.30
2018-07-04T07:10:16.826Z,92.60
2018-07-04T07:12:56.587Z,92.80
2018-07-04T07:15:36.409Z,92.20
2018-07-04T07:18:16.009Z,92.50
2018-07-04T07:20:55.963Z,92.70
2018-07-04T07:23:35.503Z,92.70
2018-07-04T07:26:15.229Z,92.80
2018-07-04T07:28:55.080Z,93.00
2018-07-04T07:31:34.757Z,93.30
2018-07-04T07:34:14.655Z,93.30
2018-07-04T07:36:54.404Z,93.60
2018-07-04T07:39:34.188Z,93.60
2018-07-04T07:42:13.985Z,93.60
2018-07-04T07:44:53.760Z,93.50
2018-07-04T07:47:33.524Z,93.90
2018-07-04T07:50:13.268Z,93.80
2018-07-04T07:52:53.025Z,93.80
2018-07-04T07:55:32.574Z,93.70
2018-07-04T07:58:12.219Z,93.70
2018-07-04T08:00:52.142Z,93.60
2018-07-04T08:03:31.794Z,93.80
2018-07-04T08:06:11.542Z,93.50
2018-07-04T08:08:51.157Z,93.90
2018-07-04T08:14:05.448Z,94.10
2018-07-04T08:16:45.606Z,94.10
2018-07-04T08:19:25.323Z,94.00
2018-07-04T08:22:05.082Z,94.00
2018-07-04T08:24:44.723Z,94.10
2018-07-04T08:27:24.538Z,93.00
2018-07-04T08:30:04.254Z,93.10
2018-07-04T08:32:43.973Z,93.20
2018-07-04T08:35:24.322Z,92.70
2018-07-04T08:40:38.089Z,92.30
2018-07-04T08:43:18.048Z,92.60
2018-07-04T08:45:57.721Z,91.50
2018-07-04T08:48:41.349Z,91.60
2018-07-04T08:51:21.178Z,91.30
2018-07-04T08:54:00.963Z,90.70
2018-07-04T08:56:40.618Z,91.10
2018-07-04T08:59:20.348Z,91.20
2018-07-04T09:02:00.108Z,90.80
2018-07-04T09:04:39.964Z,90.70
2018-07-04T09:09:53.586Z,91.60
2018-07-04T09:12:33.347Z,91.70
2018-07-04T09:15:13.042Z,92.10
2018-07-04T09:17:53.040Z,92.40
2018-07-04T09:20:32.711Z,93.20
2018-07-04T09:23:12.616Z,93.30
2018-07-04T09:25:52.404Z,93.50
2018-07-04T09:28:32.333Z,93.80
2018-07-04T09:31:11.846Z,94.90
2018-07-04T09:33:51.609Z,99.90
2018-07-04T09:36:31.505Z,99.90
2018-07-04T09:39:11.129Z,99.90
2018-07-04T09:41:50.760Z,99.90
2018-07-04T09:44:30.437Z,99.90
2018-07-04T09:47:10.309Z,99.90
2018-07-04T09:49:50.452Z,99.90
2018-07-04T09:52:30.239Z,99.90
2018-07-04T09:55:09.907Z,99.90
2018-07-04T09:57:49.717Z,99.90
2018-07-04T10:00:30.169Z,99.90
2018-07-04T10:03:11.626Z,99.90
2018-07-04T10:05:51.512Z,99.90
2018-07-04T10:08:32.279Z,99.90
2018-07-04T10:11:12.139Z,99.90
2018-07-04T10:13:52.458Z,99.90
2018-07-04T10:16:32.217Z,99.90
2018-07-04T10:19:12.930Z,99.90
2018-07-04T10:21:52.801Z,99.90
2018-07-04T10:24:32.536Z,99.90
2018-07-04T10:27:12.113Z,99.90
2018-07-04T10:29:52.621Z,99.90
2018-07-04T10:32:32.233Z,99.90
2018-07-04T10:35:12.034Z,99.90
2018-07-04T10:37:51.815Z,99.90
2018-07-04T10:40:31.646Z,99.90
2018-07-04T10:43:11.452Z,99.90
2018-07-04T10:45:51.282Z,99.90
2018-07-04T10:48:31.020Z,99.90
2018-07-04T10:51:10.627Z,99.90
2018-07-04T10:53:51.474Z,99.90
2018-07-04T10:56:31.333Z,99.90
2018-07-04T10:59:10.946Z,99.90
2018-07-04T11:01:50.866Z,99.90
2018-07-04T11:04:30.678Z,99.90
2018-07-04T11:07:10.319Z,99.90
2018-07-04T11:09:50.240Z,99.90
2018-07-04T11:12:29.703Z,99.90
2018-07-04T11:15:09.587Z,99.90
2018-07-04T11:17:49.250Z,99.90
2018-07-04T11:20:28.923Z,99.90
2018-07-04T11:25:42.334Z,99.90
2018-07-04T11:28:22.201Z,99.90
2018-07-04T11:31:01.792Z,99.90
2018-07-04T11:33:41.458Z,99.90
2018-07-04T11:36:21.236Z,99.90
2018-07-04T11:39:01.036Z,99.90
2018-07-04T11:41:40.848Z,99.90
2018-07-04T11:44:20.471Z,99.90
2018-07-04T11:46:47.750Z,99.90
2018-07-04T11:49:15.001Z,99.90
2018-07-04T11:51:42.286Z,99.80
2018-07-04T11:54:09.544Z,99.50
2018-07-04T11:56:36.875Z,99.50
2018-07-04T11:59:04.114Z,99.20
2018-07-04T12:01:31.407Z,98.80
2018-07-04T12:04:11.201Z,98.60
2018-07-04T12:06:51.057Z,98.60
2018-07-04T12:09:18.395Z,97.60
2018-07-04T12:11:45.623Z,98.10
2018-07-04T12:14:12.927Z,96.90
2018-07-04T12:19:16.242Z,95.90
2018-07-04T12:21:43.491Z,96.10
2018-07-04T12:24:10.755Z,94.70
2018-07-04T12:26:38.145Z,93.80
2018-07-04T12:29:05.477Z,93.60
2018-07-04T12:31:32.926Z,93.60
2018-07-04T12:34:00.183Z,94.00
2018-07-04T12:36:27.493Z,93.70
2018-07-04T12:38:54.896Z,94.10
2018-07-04T12:41:22.158Z,95.00
2018-07-04T12:43:49.448Z,93.80
2018-07-04T12:46:16.758Z,93.00
2018-07-04T12:48:44.031Z,93.30
2018-07-04T12:51:11.328Z,93.30
2018-07-04T12:53:38.527Z,92.90
2018-07-04T12:56:18.265Z,92.50
2018-07-04T12:58:57.762Z,92.20
2018-07-04T13:01:37.377Z,92.70
2018-07-04T13:04:17.082Z,92.00
2018-07-04T13:06:56.874Z,92.30
2018-07-04T13:09:36.649Z,91.40
2018-07-04T13:12:16.399Z,91.20
2018-07-04T13:14:56.153Z,91.20
2018-07-04T13:17:35.716Z,90.80
2018-07-04T13:20:15.217Z,91.10
2018-07-04T13:22:54.994Z,91.20
2018-07-04T13:25:34.756Z,90.90
2018-07-04T13:28:14.559Z,91.20
2018-07-04T13:30:54.265Z,91.00
2018-07-04T13:33:33.923Z,91.00
2018-07-04T13:36:13.778Z,91.70
2018-07-04T13:38:53.370Z,91.40
2018-07-04T13:41:33.075Z,91.70
2018-07-04T13:44:12.969Z,91.80
2018-07-04T13:46:52.873Z,91.60
2018-07-04T13:49:32.739Z,92.20
2018-07-04T13:52:12.483Z,93.00
2018-07-04T13:54:52.079Z,95.00
2018-07-04T13:57:32.077Z,98.50
2018-07-04T14:00:12.053Z,99.90
2018-07-04T14:02:51.773Z,99.90
2018-07-04T14:05:31.286Z,99.90
2018-07-04T14:08:11.033Z,99.90
2018-07-04T14:10:50.744Z,99.90
2018-07-04T14:13:30.469Z,99.90
2018-07-04T14:16:10.068Z,99.90
2018-07-04T14:18:49.887Z,99.90
2018-07-04T14:21:29.607Z,99.90
2018-07-04T14:24:09.668Z,99.90
2018-07-04T14:26:49.507Z,99.90
2018-07-04T14:29:29.352Z,99.90
2018-07-04T14:32:08.993Z,99.90
2018-07-04T14:34:48.757Z,99.90
2018-07-04T14:37:28.271Z,99.90
2018-07-04T14:40:08.064Z,99.90
2018-07-04T14:42:47.727Z,99.90
2018-07-04T14:45:27.410Z,99.90
2018-07-04T14:48:07.371Z,99.90
2018-07-04T14:50:46.921Z,99.90
2018-07-04T14:53:26.731Z,99.90
2018-07-04T14:56:06.695Z,99.90
2018-07-04T14:58:47.591Z,99.90
2018-07-04T15:01:27.191Z,99.90
2018-07-04T15:04:06.819Z,99.90
2018-07-04T15:06:46.456Z,99.90
2018-07-04T15:12:18.820Z,99.90
2018-07-04T15:14:58.585Z,99.90
2018-07-04T15:17:38.318Z,99.90
2018-07-04T15:20:18.286Z,99.90
2018-07-04T15:22:58.200Z,99.90
2018-07-04T15:25:38.234Z,99.90
2018-07-04T15:28:17.909Z,99.90
2018-07-04T15:30:57.514Z,99.90
2018-07-04T15:33:37.358Z,99.90
2018-07-04T15:36:17.660Z,99.90
2018-07-04T15:38:57.522Z,99.90
2018-07-04T15:41:37.185Z,99.90
2018-07-04T15:44:17.074Z,99.90
2018-07-04T15:46:56.609Z,99.90
2018-07-04T15:49:36.556Z,99.90
2018-07-04T15:52:15.997Z,99.90
2018-07-04T15:54:55.612Z,98.50
2018-07-04T16:00:09.108Z,96.80
2018-07-04T16:02:48.729Z,96.00
2018-07-04T16:05:28.821Z,95.70
2018-07-04T16:08:08.453Z,94.80
2018-07-04T16:10:48.256Z,94.80
2018-07-04T16:13:27.986Z,94.50
2018-07-04T16:16:07.715Z,93.50
2018-07-04T16:18:47.499Z,92.80
2018-07-04T16:21:27.214Z,92.90
2018-07-04T16:24:06.891Z,92.20
2018-07-04T16:26:46.573Z,91.60
2018-07-04T16:29:26.127Z,91.00
2018-07-04T16:32:05.950Z,90.50
2018-07-04T16:34:45.667Z,90.80
2018-07-04T16:37:25.482Z,90.00
2018-07-04T16:40:05.127Z,87.10
2018-07-04T16:42:45.200Z,88.30
2018-07-04T16:45:24.703Z,88.00
2018-07-04T16:48:04.608Z,85.60
2018-07-04T16:50:44.455Z,84.40
2018-07-04T16:53:24.300Z,81.90
2018-07-04T16:56:03.972Z,81.60
2018-07-04T16:58:43.752Z,78.60
2018-07-04T17:01:23.391Z,77.20
2018-07-04T17:04:03.198Z,78.20
2018-07-04T17:06:42.915Z,80.30
2018-07-04T17:09:22.645Z,83.10
2018-07-04T17:12:03.032Z,83.90
2018-07-04T17:14:42.852Z,85.90
2018-07-04T17:17:22.519Z,87.60
2018-07-04T17:20:06.259Z,89.50
2018-07-04T17:22:45.988Z,90.10
2018-07-04T17:25:25.793Z,90.50
2018-07-04T17:28:05.844Z,91.10
2018-07-04T17:30:45.584Z,91.30
2018-07-04T17:33:25.516Z,92.00
2018-07-04T17:36:05.215Z,91.80
2018-07-04T17:38:45.292Z,92.10
2018-07-04T17:41:25.059Z,91.70
2018-07-04T17:44:04.988Z,91.90
2018-07-04T17:46:44.796Z,92.40
2018-07-04T17:49:24.591Z,92.20
2018-07-04T17:52:04.367Z,93.40
2018-07-04T17:54:44.171Z,94.10
2018-07-04T17:57:24.760Z,95.10
2018-07-04T18:00:04.411Z,95.70
2018-07-04T18:02:44.148Z,95.90
2018-07-04T18:05:23.905Z,95.60
2018-07-04T18:08:03.509Z,96.20
2018-07-04T18:10:46.479Z,97.40
2018-07-04T18:13:26.328Z,97.60
2018-07-04T18:16:05.912Z,97.30
2018-07-04T18:21:23.473Z,98.40
2018-07-04T18:24:03.698Z,98.90
2018-07-04T18:26:43.421Z,99.10
2018-07-04T18:29:23.269Z,99.30
2018-07-04T18:32:03.152Z,99.30
2018-07-04T18:34:43.042Z,99.50
2018-07-04T18:37:22.646Z,99.60
2018-07-04T18:40:02.130Z,99.70
2018-07-04T18:42:41.900Z,99.90
2018-07-04T18:45:21.465Z,99.90
2018-07-04T18:48:01.043Z,99.90
2018-07-04T18:50:40.875Z,99.90
2018-07-04T18:53:20.533Z,99.90
2018-07-04T18:56:00.267Z,99.90
2018-07-04T18:58:40.058Z,99.90
2018-07-04T19:01:19.723Z,99.90
2018-07-04T19:03:59.499Z,99.90
2018-07-04T19:06:39.073Z,99.90
2018-07-04T19:09:18.886Z,99.90
2018-07-04T19:11:58.639Z,99.90
2018-07-04T19:14:39.597Z,99.90
2018-07-04T19:17:19.507Z,99.90
2018-07-04T19:20:00.212Z,99.90
2018-07-04T19:22:40.040Z,99.90
2018-07-04T19:25:19.643Z,99.90
2018-07-04T19:27:59.247Z,99.90
2018-07-04T19:30:38.848Z,99.90
2018-07-04T19:33:18.487Z,99.90
2018-07-04T19:35:58.344Z,99.90
2018-07-04T19:38:38.118Z,99.90
2018-07-04T19:41:17.943Z,99.90
2018-07-04T19:43:57.754Z,99.90
2018-07-04T19:46:37.439Z,99.90
2018-07-04T19:49:17.157Z,99.90
2018-07-04T19:51:57.033Z,99.90
2018-07-04T19:57:10.253Z,99.90
2018-07-04T19:59:49.925Z,99.90
2018-07-04T20:05:03.356Z,99.90
2018-07-04T20:07:43.964Z,99.90
2018-07-04T20:10:23.542Z,99.90
2018-07-04T20:13:03.154Z,99.90
2018-07-04T20:15:42.997Z,99.90
2018-07-04T20:18:22.694Z,99.90
2018-07-04T20:21:02.353Z,99.90
2018-07-04T20:23:42.245Z,99.90
2018-07-04T20:26:21.837Z,99.90
2018-07-04T20:29:01.589Z,99.90
2018-07-04T20:34:34.787Z,99.90
2018-07-04T20:37:14.576Z,99.90
2018-07-04T20:39:54.313Z,99.90
2018-07-04T20:42:34.221Z,99.90
2018-07-04T20:45:13.998Z,99.90
2018-07-04T20:50:27.226Z,99.90
2018-07-04T20:53:07.025Z,99.90
2018-07-04T20:55:46.888Z,99.90
2018-07-04T20:58:30.026Z,99.90
2018-07-04T21:01:09.741Z,99.90
2018-07-04T21:03:49.429Z,99.90
2018-07-04T21:06:29.097Z,99.90
2018-07-04T21:09:08.673Z,99.90
2018-07-04T21:11:48.512Z,99.90
2018-07-04T21:14:28.347Z,99.90
2018-07-04T21:17:08.023Z,99.90
2018-07-04T21:19:47.846Z,99.90
2018-07-04T21:22:27.624Z,99.90
2018-07-04T21:25:07.529Z,99.90
2018-07-04T21:27:47.253Z,99.90
2018-07-04T21:30:27.092Z,99.90
2018-07-04T21:33:06.959Z,99.90
2018-07-04T21:35:46.495Z,99.90
2018-07-04T21:38:26.190Z,99.90
2018-07-04T21:41:05.913Z,99.90
2018-07-04T21:43:45.793Z,99.90
2018-07-04T21:46:25.425Z,99.90
2018-07-04T21:49:05.043Z,99.90
2018-07-04T21:51:44.817Z,99.90
2018-07-04T21:54:24.570Z,99.90
2018-07-04T21:57:04.310Z,99.90
2018-07-04T21:59:43.967Z,99.90
2018-07-04T22:02:23.459Z,99.90
2018-07-04T22:05:03.166Z,99.90
2018-07-04T22:07:42.889Z,99.90
2018-07-04T22:10:22.618Z,99.90
2018-07-04T22:13:02.295Z,99.90
2018-07-04T22:15:41.890Z,99.90
2018-07-04T22:18:21.644Z,99.90
2018-07-04T22:21:01.244Z,99.90
2018-07-04T22:23:41.001Z,99.90
2018-07-04T22:26:20.895Z,99.90
2018-07-04T22:29:00.917Z,99.90
2018-07-04T22:31:40.773Z,99.90
2018-07-04T22:34:20.476Z,99.90
2018-07-04T22:37:00.245Z,99.90
2018-07-04T22:39:40.019Z,99.90
2018-07-04T22:42:19.531Z,99.90
2018-07-04T22:44:59.081Z,99.90
2018-07-04T22:47:38.807Z,99.90
2018-07-04T22:50:18.435Z,99.90
2018-07-04T22:52:58.082Z,99.90
2018-07-04T22:55:38.805Z,99.90
2018-07-04T22:58:18.445Z,99.90
2018-07-04T23:00:58.079Z,99.90
2018-07-04T23:03:37.690Z,99.90
2018-07-04T23:06:17.574Z,99.90
2018-07-04T23:08:57.181Z,99.90
2018-07-04T23:11:37.017Z,99.90
2018-07-04T23:14:16.724Z,99.90
2018-07-04T23:16:56.335Z,99.90
2018-07-04T23:19:35.948Z,99.90
2018-07-04T23:24:49.346Z,99.90
2018-07-04T23:27:29.102Z,99.90
2018-07-04T23:30:08.876Z,99.90
2018-07-04T23:32:48.565Z,99.90
2018-07-04T23:35:28.430Z,99.90
2018-07-04T23:38:08.090Z,99.90
2018-07-04T23:40:47.933Z,99.90
2018-07-04T23:43:27.820Z,99.90
2018-07-04T23:46:07.521Z,99.90
2018-07-04T23:48:47.369Z,99.90
2018-07-04T23:51:29.995Z,99.90
2018-07-04T23:54:09.607Z,99.90
2018-07-04T23:56:49.270Z,99.90
2018-07-04T23:59:29.047Z,99.90
